createdAt,value
2023-01-31T00:01:10.256Z,1.80
2023-01-31T00:03:37.398Z,2.30
2023-01-31T00:06:11.281Z,1.97
2023-01-31T00:08:38.433Z,2.20
2023-01-31T00:11:05.186Z,2.53
2023-01-31T00:16:16.293Z,1.97
2023-01-31T00:18:43.073Z,1.20
2023-01-31T00:21:13.720Z,2.07
2023-01-31T00:23:40.680Z,1.40
2023-01-31T00:26:11.188Z,1.50
2023-01-31T00:28:38.494Z,1.97
2023-01-31T00:31:05.245Z,1.73
2023-01-31T00:33:31.857Z,2.53
2023-01-31T00:35:58.413Z,2.70
2023-01-31T00:38:25.014Z,1.60
2023-01-31T00:43:39.252Z,1.90
2023-01-31T00:48:50.125Z,2.00
2023-01-31T00:54:00.929Z,1.90
2023-01-31T00:59:11.553Z,2.10
2023-01-31T01:01:38.212Z,1.80
2023-01-31T01:04:05.073Z,1.40
2023-01-31T01:06:33.816Z,2.13
2023-01-31T01:09:00.848Z,1.07
2023-01-31T01:11:28.119Z,1.80
2023-01-31T01:13:54.753Z,1.83
2023-01-31T01:16:22.780Z,1.70
2023-01-31T01:18:50.355Z,1.47
2023-01-31T01:21:21.784Z,1.47
2023-01-31T01:26:33.941Z,1.90
2023-01-31T01:31:45.467Z,2.10
2023-01-31T01:34:12.888Z,1.77
2023-01-31T01:36:39.633Z,1.83
2023-01-31T01:39:07.310Z,1.73
2023-01-31T01:41:34.022Z,2.03
2023-01-31T02:16:35.215Z,2.13
2023-01-31T02:19:03.256Z,1.60
2023-01-31T02:21:45.244Z,1.50
2023-01-31T02:24:17.714Z,2.33
2023-01-31T02:30:05.584Z,1.40
2023-01-31T02:32:38.480Z,1.60
2023-01-31T02:35:23.951Z,2.53
2023-01-31T02:40:54.917Z,2.40
2023-01-31T02:43:55.631Z,1.93
2023-01-31T02:46:22.398Z,1.37
2023-01-31T02:48:55.361Z,1.23
2023-01-31T02:51:24.098Z,1.23
2023-01-31T02:53:56.988Z,1.70
2023-01-31T02:56:27.623Z,1.70
2023-01-31T02:59:02.291Z,4.17
2023-01-31T03:01:33.062Z,1.37
2023-01-31T03:04:00.095Z,1.80
2023-01-31T03:06:27.588Z,1.20
2023-01-31T03:09:03.487Z,1.10
2023-01-31T03:11:39.463Z,1.27
2023-01-31T03:14:06.111Z,1.57
2023-01-31T03:16:54.983Z,1.50
2023-01-31T03:19:28.527Z,1.40
2023-01-31T03:21:55.921Z,1.80
2023-01-31T03:24:26.192Z,2.03
2023-01-31T03:26:53.935Z,1.30
2023-01-31T03:29:20.618Z,1.30
2023-01-31T03:31:49.481Z,1.57
2023-01-31T03:34:16.199Z,1.97
2023-01-31T03:40:08.685Z,0.70
2023-01-31T03:42:52.365Z,1.97
2023-01-31T03:45:22.507Z,1.10
2023-01-31T03:47:50.245Z,1.83
2023-01-31T03:50:21.940Z,1.73
2023-01-31T03:53:02.578Z,2.00
2023-01-31T03:58:16.819Z,2.50
2023-01-31T04:00:43.631Z,1.53
2023-01-31T04:03:13.028Z,0.90
2023-01-31T04:05:40.914Z,1.20
2023-01-31T04:10:59.164Z,1.20
2023-01-31T04:16:09.903Z,1.07
2023-01-31T04:21:20.530Z,1.03
2023-01-31T04:26:32.145Z,1.40
2023-01-31T04:28:58.889Z,3.10
2023-01-31T04:31:25.603Z,1.33
2023-01-31T04:33:52.259Z,1.37
2023-01-31T04:36:18.863Z,3.10
2023-01-31T04:38:45.403Z,1.37
2023-01-31T04:41:11.986Z,1.83
2023-01-31T04:43:38.560Z,3.43
2023-01-31T04:46:05.128Z,2.37
2023-01-31T04:48:31.872Z,1.17
2023-01-31T04:53:43.296Z,1.30
2023-01-31T04:56:09.873Z,0.60
2023-01-31T04:58:36.813Z,0.97
2023-01-31T05:01:03.465Z,1.70
2023-01-31T05:03:30.153Z,2.10
2023-01-31T05:05:56.687Z,1.90
2023-01-31T05:08:23.284Z,1.40
2023-01-31T05:10:49.886Z,1.70
2023-01-31T05:13:16.563Z,1.60
2023-01-31T05:15:43.103Z,1.50
2023-01-31T05:18:10.226Z,1.63
2023-01-31T05:20:39.853Z,2.50
2023-01-31T05:23:06.751Z,1.30
2023-01-31T05:25:33.452Z,1.73
2023-01-31T05:28:00.182Z,1.80
2023-01-31T05:30:27.505Z,1.90
2023-01-31T05:32:54.360Z,1.60
2023-01-31T05:35:21.407Z,1.90
2023-01-31T05:37:48.235Z,3.03
2023-01-31T05:43:01.763Z,2.90
2023-01-31T05:45:28.762Z,2.20
2023-01-31T05:47:55.445Z,2.20
2023-01-31T05:50:22.023Z,2.67
2023-01-31T05:52:52.312Z,1.97
2023-01-31T05:55:19.386Z,2.43
2023-01-31T05:57:46.111Z,2.83
2023-01-31T06:00:13.193Z,2.23
2023-01-31T06:02:40.294Z,3.70
2023-01-31T06:05:07.058Z,1.87
2023-01-31T06:07:33.998Z,2.37
2023-01-31T06:10:01.024Z,2.20
2023-01-31T06:12:28.904Z,1.80
2023-01-31T06:17:40.304Z,2.23
2023-01-31T06:20:09.898Z,1.80
2023-01-31T06:22:36.525Z,2.60
2023-01-31T06:25:03.162Z,1.80
2023-01-31T06:27:32.147Z,1.80
2023-01-31T06:29:59.274Z,1.40
2023-01-31T06:32:26.028Z,1.60
2023-01-31T06:34:52.613Z,2.30
2023-01-31T06:37:19.207Z,1.87
2023-01-31T06:39:45.732Z,1.50
2023-01-31T06:42:12.350Z,2.00
2023-01-31T06:44:38.884Z,1.97
2023-01-31T06:47:05.541Z,2.17
2023-01-31T06:49:32.597Z,2.20
2023-01-31T06:51:59.280Z,2.50
2023-01-31T06:54:25.908Z,2.53
2023-01-31T06:56:52.697Z,2.13
2023-01-31T06:59:19.271Z,1.20
2023-01-31T07:01:46.003Z,1.73
2023-01-31T07:04:15.248Z,2.93
2023-01-31T07:06:41.845Z,2.17
2023-01-31T07:09:08.478Z,2.47
2023-01-31T07:11:35.149Z,2.50
2023-01-31T07:14:01.775Z,2.87
2023-01-31T07:16:31.302Z,2.70
2023-01-31T07:18:57.971Z,2.17
2023-01-31T07:21:24.736Z,1.83
2023-01-31T07:23:51.298Z,2.33
2023-01-31T07:26:17.983Z,1.53
2023-01-31T07:28:44.585Z,2.27
2023-01-31T07:31:12.016Z,2.20
2023-01-31T07:33:38.780Z,2.40
2023-01-31T07:36:05.737Z,1.40
2023-01-31T07:38:32.598Z,2.03
2023-01-31T07:43:47.362Z,1.97
2023-01-31T07:46:14.009Z,2.47
2023-01-31T07:48:40.670Z,2.67
2023-01-31T07:51:07.289Z,2.30
2023-01-31T07:53:34.785Z,2.67
2023-01-31T07:56:10.893Z,1.90
2023-01-31T07:58:38.072Z,1.67
2023-01-31T08:01:23.826Z,1.87
2023-01-31T08:03:50.828Z,2.50
2023-01-31T08:06:17.509Z,2.80
2023-01-31T08:08:44.184Z,2.33
2023-01-31T08:11:10.981Z,2.00
2023-01-31T08:13:38.259Z,1.67
2023-01-31T08:16:05.303Z,2.67
2023-01-31T08:21:16.435Z,2.07
2023-01-31T08:23:43.469Z,2.83
2023-01-31T08:26:14.128Z,2.07
2023-01-31T08:28:41.071Z,1.90
2023-01-31T08:31:09.418Z,2.13
2023-01-31T08:33:37.395Z,1.73
2023-01-31T08:36:11.073Z,1.57
2023-01-31T08:38:38.012Z,2.13
2023-01-31T08:41:05.091Z,2.20
2023-01-31T08:43:39.312Z,2.20
2023-01-31T08:46:12.557Z,1.13
2023-01-31T08:48:39.431Z,2.30
2023-01-31T08:51:06.795Z,1.20
2023-01-31T08:53:33.568Z,1.80
2023-01-31T08:56:00.872Z,1.70
2023-01-31T08:58:27.778Z,1.93
2023-01-31T09:00:54.393Z,2.20
2023-01-31T09:03:21.496Z,1.60
2023-01-31T09:05:48.455Z,1.53
2023-01-31T09:08:15.079Z,1.63
2023-01-31T09:13:26.322Z,1.80
2023-01-31T09:18:43.919Z,1.63
2023-01-31T09:21:11.650Z,1.23
2023-01-31T09:23:40.697Z,1.63
2023-01-31T09:26:09.064Z,1.33
2023-01-31T09:31:21.056Z,1.03
2023-01-31T09:33:47.874Z,1.43
2023-01-31T09:36:16.841Z,2.00
2023-01-31T09:38:43.573Z,1.53
2023-01-31T09:41:30.949Z,1.70
2023-01-31T09:44:17.907Z,1.30
2023-01-31T09:46:45.672Z,1.97
2023-01-31T09:49:15.229Z,1.30
2023-01-31T09:51:42.153Z,2.07
2023-01-31T09:54:15.846Z,1.80
2023-01-31T09:56:43.184Z,1.67
2023-01-31T09:59:28.627Z,1.97
2023-01-31T10:01:59.026Z,1.70
2023-01-31T10:04:39.608Z,2.30
2023-01-31T10:07:15.451Z,1.70
2023-01-31T10:09:47.033Z,1.53
2023-01-31T10:12:16.507Z,1.47
2023-01-31T10:17:33.715Z,0.90
2023-01-31T10:20:07.243Z,1.80
2023-01-31T10:22:37.107Z,1.27
2023-01-31T10:25:19.167Z,1.10
2023-01-31T10:27:49.292Z,1.80
2023-01-31T10:30:20.624Z,1.87
2023-01-31T10:32:49.705Z,1.60
2023-01-31T10:35:19.692Z,1.90
2023-01-31T10:37:48.108Z,1.43
2023-01-31T10:40:14.936Z,1.60
2023-01-31T10:42:42.599Z,1.83
2023-01-31T10:45:09.286Z,1.63
2023-01-31T10:47:36.728Z,1.53
2023-01-31T10:50:16.947Z,1.77
2023-01-31T10:52:50.666Z,1.77
2023-01-31T10:58:05.748Z,1.20
2023-01-31T11:00:33.629Z,1.03
2023-01-31T11:03:00.290Z,1.40
2023-01-31T11:05:28.021Z,1.20
2023-01-31T11:10:41.648Z,1.50
2023-01-31T11:15:54.214Z,1.67
2023-01-31T11:18:26.050Z,2.00
2023-01-31T11:20:52.921Z,1.80
2023-01-31T11:23:22.352Z,1.87
2023-01-31T11:25:49.533Z,2.10
2023-01-31T11:28:22.893Z,2.07
2023-01-31T11:30:50.580Z,1.90
2023-01-31T11:33:35.675Z,2.43
2023-01-31T11:36:06.974Z,1.53
2023-01-31T11:38:33.904Z,1.60
2023-01-31T11:41:00.533Z,1.10
2023-01-31T11:43:29.963Z,1.67
2023-01-31T11:45:57.595Z,2.00
2023-01-31T11:48:25.122Z,1.23
2023-01-31T11:53:38.660Z,1.43
2023-01-31T11:56:13.076Z,1.33
2023-01-31T11:58:40.153Z,1.40
2023-01-31T12:01:12.937Z,1.93
2023-01-31T12:03:51.836Z,1.40
2023-01-31T12:06:27.132Z,2.23
2023-01-31T12:08:54.219Z,0.83
2023-01-31T12:11:21.663Z,1.67
2023-01-31T12:13:49.397Z,1.67
2023-01-31T12:16:25.636Z,1.10
2023-01-31T12:19:08.383Z,1.80
2023-01-31T12:21:53.673Z,1.70
2023-01-31T12:24:32.911Z,1.63
2023-01-31T12:27:02.288Z,1.23
2023-01-31T12:32:37.574Z,1.27
2023-01-31T12:35:08.167Z,1.50
2023-01-31T12:37:39.764Z,1.70
2023-01-31T12:42:58.280Z,1.87
2023-01-31T12:48:14.385Z,1.90
2023-01-31T12:50:43.842Z,2.00
2023-01-31T12:53:29.192Z,2.07
2023-01-31T12:56:06.052Z,1.57
2023-01-31T12:58:35.494Z,2.13
2023-01-31T13:01:04.191Z,2.50
2023-01-31T13:03:59.634Z,2.20
2023-01-31T13:06:29.195Z,1.50
2023-01-31T13:11:56.511Z,2.03
2023-01-31T13:14:23.714Z,1.70
2023-01-31T13:16:54.746Z,2.00
2023-01-31T13:22:15.156Z,1.93
2023-01-31T13:24:42.086Z,2.67
2023-01-31T13:27:15.391Z,1.77
2023-01-31T13:29:52.350Z,1.13
2023-01-31T13:32:21.080Z,1.93
2023-01-31T13:35:13.699Z,1.27
2023-01-31T13:37:40.532Z,1.40
2023-01-31T13:43:13.911Z,1.70
2023-01-31T13:45:46.400Z,1.30
2023-01-31T13:48:36.171Z,0.80
2023-01-31T13:51:11.570Z,1.13
2023-01-31T13:53:42.882Z,1.77
2023-01-31T13:56:10.244Z,1.73
2023-01-31T13:58:36.837Z,1.33
2023-01-31T14:01:04.710Z,2.00
2023-01-31T14:03:31.391Z,1.90
2023-01-31T14:06:01.129Z,1.73
2023-01-31T14:08:31.899Z,1.77
2023-01-31T14:10:59.367Z,2.80
2023-01-31T14:13:38.947Z,2.70
2023-01-31T14:16:25.618Z,2.40
2023-01-31T14:18:52.327Z,2.83
2023-01-31T14:21:30.917Z,1.40
2023-01-31T14:23:58.210Z,1.57
2023-01-31T14:26:43.180Z,2.90
2023-01-31T14:31:54.941Z,2.73
2023-01-31T14:34:24.198Z,2.47
2023-01-31T14:36:53.710Z,2.90
2023-01-31T14:39:23.645Z,3.17
2023-01-31T14:44:53.005Z,2.50
2023-01-31T14:47:32.606Z,2.37
2023-01-31T14:50:17.798Z,2.03
2023-01-31T14:55:31.940Z,2.60
2023-01-31T15:00:47.325Z,2.17
2023-01-31T15:03:24.368Z,1.03
2023-01-31T15:05:51.807Z,2.60
2023-01-31T15:08:20.377Z,2.77
2023-01-31T15:11:02.082Z,2.70
2023-01-31T15:13:37.877Z,2.00
2023-01-31T15:16:15.971Z,2.40
2023-01-31T15:18:43.037Z,2.10
2023-01-31T15:21:09.609Z,2.93
2023-01-31T15:23:37.041Z,1.80
2023-01-31T15:26:04.584Z,2.73
2023-01-31T15:28:35.020Z,2.10
2023-01-31T15:31:06.386Z,1.67
2023-01-31T15:33:36.133Z,2.20
2023-01-31T15:36:10.871Z,2.03
2023-01-31T15:38:38.571Z,1.93
2023-01-31T15:41:25.563Z,2.47
2023-01-31T15:43:53.625Z,3.10
2023-01-31T15:49:36.887Z,1.80
2023-01-31T15:55:01.210Z,3.20
2023-01-31T15:57:33.751Z,2.90
2023-01-31T16:00:00.357Z,3.27
2023-01-31T16:02:31.031Z,3.53
2023-01-31T16:04:57.803Z,4.47
2023-01-31T16:07:28.493Z,3.27
2023-01-31T16:09:56.016Z,3.40
2023-01-31T16:12:23.064Z,2.90
2023-01-31T16:14:51.229Z,3.03
2023-01-31T16:17:18.916Z,3.87
2023-01-31T16:20:07.060Z,2.40
2023-01-31T16:22:33.698Z,3.90
2023-01-31T16:25:01.107Z,5.50
2023-01-31T16:30:15.330Z,3.80
2023-01-31T16:32:44.183Z,4.17
2023-01-31T16:35:24.606Z,2.93
2023-01-31T16:38:20.502Z,3.73
2023-01-31T16:40:48.027Z,3.20
2023-01-31T16:43:20.626Z,3.33
2023-01-31T16:45:51.208Z,4.23
2023-01-31T16:51:28.664Z,3.40
2023-01-31T16:54:14.962Z,3.87
2023-01-31T16:56:43.182Z,3.10
2023-01-31T16:59:28.343Z,2.50
2023-01-31T17:01:57.724Z,3.80
2023-01-31T17:04:24.295Z,3.17
2023-01-31T17:06:51.832Z,2.77
2023-01-31T17:09:19.523Z,3.97
2023-01-31T17:11:47.292Z,3.60
2023-01-31T17:14:14.911Z,2.57
2023-01-31T17:16:41.700Z,4.03
2023-01-31T17:19:08.611Z,3.30
2023-01-31T17:21:38.200Z,1.90
2023-01-31T17:24:05.001Z,3.27
2023-01-31T17:26:31.743Z,1.70
2023-01-31T17:29:02.001Z,3.27
2023-01-31T17:31:29.836Z,1.80
2023-01-31T17:33:56.600Z,1.70
2023-01-31T17:36:24.561Z,2.13
2023-01-31T17:38:52.684Z,3.77
2023-01-31T17:41:21.279Z,1.53
2023-01-31T17:46:32.435Z,4.53
2023-01-31T17:51:45.429Z,2.50
2023-01-31T17:54:13.219Z,2.33
2023-01-31T17:56:40.061Z,3.10
2023-01-31T17:59:08.340Z,2.10
2023-01-31T18:04:19.622Z,2.23
2023-01-31T18:06:46.971Z,3.23
2023-01-31T18:09:16.554Z,3.10
2023-01-31T18:11:43.912Z,2.47
2023-01-31T18:16:55.374Z,1.53
2023-01-31T18:22:06.819Z,2.00
2023-01-31T18:27:18.200Z,2.67
2023-01-31T18:29:44.913Z,2.27
2023-01-31T18:32:11.605Z,3.80
2023-01-31T18:34:38.469Z,1.93
2023-01-31T18:37:10.439Z,3.40
2023-01-31T18:39:37.342Z,2.23
2023-01-31T18:42:04.445Z,3.03
2023-01-31T18:44:32.014Z,3.53
2023-01-31T18:46:58.733Z,4.23
2023-01-31T18:49:25.344Z,1.70
2023-01-31T18:51:52.110Z,3.37
2023-01-31T18:54:19.200Z,4.60
2023-01-31T18:56:45.886Z,3.50
2023-01-31T19:02:07.063Z,1.87
2023-01-31T19:04:33.874Z,1.90
2023-01-31T19:07:01.867Z,1.93
2023-01-31T19:09:29.135Z,2.70
2023-01-31T19:11:56.151Z,2.57
2023-01-31T19:14:22.896Z,2.33
2023-01-31T19:16:49.761Z,2.70
2023-01-31T19:19:17.133Z,2.67
2023-01-31T19:21:43.891Z,2.67
2023-01-31T19:24:12.087Z,1.50
2023-01-31T19:26:39.023Z,1.63
2023-01-31T19:29:08.072Z,1.53
2023-01-31T19:31:36.770Z,1.47
2023-01-31T19:34:04.620Z,1.97
2023-01-31T19:36:32.735Z,1.30
2023-01-31T19:39:00.008Z,1.33
2023-01-31T19:41:27.524Z,2.70
2023-01-31T19:43:54.948Z,2.43
2023-01-31T19:46:21.805Z,2.50
2023-01-31T19:48:48.824Z,2.00
2023-01-31T19:51:19.068Z,1.07
2023-01-31T19:53:47.226Z,2.10
2023-01-31T19:56:14.233Z,2.13
2023-01-31T19:58:40.929Z,2.23
2023-01-31T20:01:08.735Z,2.47
2023-01-31T20:03:35.514Z,2.90
2023-01-31T20:06:05.721Z,1.67
2023-01-31T20:08:32.450Z,2.80
2023-01-31T20:10:59.208Z,2.77
2023-01-31T20:13:26.105Z,3.37
2023-01-31T20:15:59.196Z,3.00
2023-01-31T20:18:31.130Z,3.30
2023-01-31T20:20:59.136Z,2.73
2023-01-31T20:23:28.825Z,2.30
2023-01-31T20:25:55.638Z,3.23
2023-01-31T20:28:22.317Z,2.27
2023-01-31T20:30:49.238Z,2.30
2023-01-31T20:33:16.080Z,3.40
2023-01-31T20:35:42.757Z,2.07
2023-01-31T20:38:11.152Z,2.47
2023-01-31T20:40:38.079Z,2.23
2023-01-31T20:43:04.763Z,2.23
2023-01-31T20:45:31.919Z,1.50
2023-01-31T20:47:59.010Z,1.80
2023-01-31T20:50:25.840Z,2.03
2023-01-31T20:52:58.844Z,1.47
2023-01-31T20:55:25.811Z,1.70
2023-01-31T20:57:52.595Z,0.73
2023-01-31T21:00:20.453Z,1.00
2023-01-31T21:02:48.404Z,0.37
2023-01-31T21:05:16.492Z,0.87
2023-01-31T21:07:43.305Z,0.53
2023-01-31T21:10:12.618Z,0.70
2023-01-31T21:12:39.602Z,1.10
2023-01-31T21:15:06.472Z,0.50
2023-01-31T21:17:39.919Z,1.10
2023-01-31T21:20:08.008Z,0.40
2023-01-31T21:25:23.311Z,0.80
2023-01-31T21:27:50.950Z,0.50
2023-01-31T21:30:17.819Z,0.90
2023-01-31T21:32:44.702Z,0.53
2023-01-31T21:35:13.104Z,0.80
2023-01-31T21:37:39.855Z,1.10
2023-01-31T21:40:07.304Z,0.80
2023-01-31T21:42:34.578Z,1.07
2023-01-31T21:45:02.241Z,0.40
2023-01-31T21:47:29.155Z,1.10
2023-01-31T21:49:56.331Z,0.70
2023-01-31T21:52:23.376Z,1.10
2023-01-31T21:54:50.007Z,0.50
2023-01-31T21:57:16.802Z,1.03
2023-01-31T21:59:45.637Z,1.17
2023-01-31T22:02:13.052Z,0.93
2023-01-31T22:04:39.765Z,0.87
2023-01-31T22:07:06.771Z,1.00
2023-01-31T22:09:33.595Z,1.57
2023-01-31T22:12:00.372Z,1.03
2023-01-31T22:14:27.042Z,0.90
2023-01-31T22:16:55.172Z,0.97
2023-01-31T22:19:21.875Z,1.53
2023-01-31T22:21:48.516Z,0.80
2023-01-31T22:24:16.946Z,1.10
2023-01-31T22:26:43.845Z,0.90
2023-01-31T22:29:11.394Z,0.77
2023-01-31T22:31:38.372Z,1.27
2023-01-31T22:36:49.502Z,1.37
2023-01-31T22:39:16.355Z,0.80
2023-01-31T22:41:44.757Z,0.77
2023-01-31T22:44:11.742Z,1.43
2023-01-31T22:46:38.634Z,1.13
2023-01-31T22:49:05.254Z,1.37
2023-01-31T22:51:31.868Z,1.53
2023-01-31T22:53:58.711Z,1.70
2023-01-31T22:56:26.825Z,1.13
2023-01-31T22:59:00.796Z,1.40
2023-01-31T23:01:28.748Z,0.73
2023-01-31T23:03:56.087Z,0.77
2023-01-31T23:09:06.639Z,0.87
2023-01-31T23:11:33.289Z,1.53
2023-01-31T23:14:00.036Z,0.83
2023-01-31T23:16:45.127Z,1.20
2023-01-31T23:19:11.896Z,0.60
2023-01-31T23:21:39.245Z,1.00
2023-01-31T23:24:06.182Z,1.07
2023-01-31T23:26:35.185Z,1.07
2023-01-31T23:29:01.992Z,1.37
2023-01-31T23:31:28.787Z,1.00
2023-01-31T23:33:55.609Z,0.90
2023-01-31T23:36:22.200Z,1.30
2023-01-31T23:38:48.873Z,0.97
2023-01-31T23:41:15.471Z,1.40
2023-01-31T23:43:42.054Z,0.77
2023-01-31T23:46:08.732Z,0.93
2023-01-31T23:48:37.061Z,1.13
2023-01-31T23:51:04.107Z,1.90
2023-01-31T23:53:30.779Z,0.87
2023-01-31T23:55:57.538Z,1.03
2023-01-31T23:58:24.156Z,1.17
